Terminal Aerodrome Forecast
Issued by NWS

Home | Current Version | Previous Version | Text Only | Print | Product List | Glossary On
Versions: 1 2 3 4 5 6 7 8 9 10 11 12 13 14 15 16 17 18 19 20 21 22
000
FTUS46 KMFR 222339
TAFRBG
TAF
KRBG 222339Z 2300/2324 18005KT P6SM -SHRA SCT020 OVC040
     FM230700 00000KT 4SM BR OVC015
     FM230900 12001KT 4SM BR OVC007
     FM231300 VRB02KT 1/4SM FG OVC001
     FM231900 35003KT P6SM FEW005=

USA.gov is the U.S. government's official web portal to all federal, state and local government web resources and services.